Time;durP1;ratioP1;P1;durP2;ratioP2;P2;SDS_P1;SDS_P2;PMS_P1;PMS_P2;Temp;Humidity;BMP_temperature;BMP_pressure;BME280_temperature;BME280_humidity;BME280_pressure;Samples;Min_cycle;Max_cycle;Signal;HPM_P1;HPM_P2
2022/06/04 00:00:39;;;;;;;13.15;11.77;;;;;;;20.46;100.00;99842.19;4992934;28;20053;-88
2022/06/04 00:03:05;;;;;;;13.98;12.73;;;;;;;20.47;100.00;99838.09;5005519;28;20084;-87
2022/06/04 00:05:33;;;;;;;14.38;12.35;;;;;;;20.56;100.00;99827.88;5027120;28;20049;-87
2022/06/04 00:08:00;;;;;;;14.15;12.32;;;;;;;20.57;100.00;99835.81;4994384;28;20046;-86
2022/06/04 00:16:21;;;;;;;13.77;12.35;;;;;;;20.57;100.00;99832.25;5026208;28;20049;-86
2022/06/04 00:18:47;;;;;;;14.15;12.93;;;;;;;20.56;100.00;99828.66;5003596;28;20037;-85
2022/06/04 00:21:13;;;;;;;14.55;13.20;;;;;;;20.54;100.00;99828.41;5026300;28;20089;-85
2022/06/04 00:23:39;;;;;;;14.27;12.40;;;;;;;20.64;100.00;99829.69;5025836;28;20033;-86
2022/06/04 00:26:09;;;;;;;15.48;13.50;;;;;;;20.64;100.00;99814.81;5024726;28;20045;-87
2022/06/04 00:28:35;;;;;;;13.50;12.25;;;;;;;20.64;100.00;99828.91;5010128;28;20049;-88
2022/06/04 00:31:01;;;;;;;13.93;12.60;;;;;;;20.68;100.00;99821.72;5010606;28;20463;-88
2022/06/04 00:33:27;;;;;;;14.95;12.77;;;;;;;20.73;100.00;99828.66;5009984;28;20112;-87
2022/06/04 00:35:55;;;;;;;14.13;12.57;;;;;;;20.73;100.00;99825.84;5009132;28;20041;-88
2022/06/04 00:38:23;;;;;;;13.13;11.70;;;;;;;20.74;100.00;99827.38;5026776;28;20096;-88
2022/06/04 00:40:57;;;;;;;14.27;12.88;;;;;;;20.76;100.00;99824.81;5023963;28;20046;-87
2022/06/04 00:43:23;;;;;;;14.52;13.13;;;;;;;20.73;100.00;99828.66;5030373;28;20088;-88
2022/06/04 00:46:20;;;;;;;13.88;12.55;;;;;;;20.72;100.00;99813.03;5028508;28;20037;-85
2022/06/04 00:48:46;;;;;;;15.13;13.10;;;;;;;20.67;100.00;99822.25;5015007;28;20188;-85
2022/06/04 00:51:12;;;;;;;15.10;13.70;;;;;;;20.57;100.00;99818.91;5006418;28;20133;-85
2022/06/04 00:53:37;;;;;;;15.55;14.07;;;;;;;20.58;100.00;99820.47;5024847;28;20156;-85
2022/06/04 00:56:20;;;;;;;16.38;14.77;;;;;;;20.42;100.00;99807.88;5027485;28;20033;-85
2022/06/04 00:59:14;;;;;;;16.23;14.70;;;;;;;20.42;100.00;99821.97;5026618;28;20339;-85
2022/06/04 01:01:51;;;;;;;16.98;13.95;;;;;;;20.41;100.00;99817.63;5268090;22;20497;-85
2022/06/04 01:07:28;;;;;;;16.50;14.82;;;;;;;20.37;100.00;99819.94;5096388;22;20049;-87
2022/06/04 01:10:16;;;;;;;15.82;14.35;;;;;;;20.44;100.00;99824.28;5045438;28;20099;-87
2022/06/04 01:13:15;;;;;;;16.67;14.93;;;;;;;20.44;100.00;99822.22;5042301;28;20123;-87
2022/06/04 01:15:47;;;;;;;16.50;14.75;;;;;;;20.40;100.00;99821.72;5022889;28;20106;-87
2022/06/04 01:18:15;;;;;;;15.93;14.32;;;;;;;20.42;100.00;99824.78;5048948;28;20125;-87
2022/06/04 01:20:55;;;;;;;15.77;14.20;;;;;;;20.52;100.00;99821.72;5031258;28;20037;-86
2022/06/04 01:23:49;;;;;;;15.25;13.65;;;;;;;20.53;100.00;99826.09;5037963;28;20037;-83
2022/06/04 01:26:39;;;;;;;14.98;13.68;;;;;;;20.61;100.00;99827.13;5048366;28;20739;-86
2022/06/04 01:29:13;;;;;;;14.98;12.95;;;;;;;20.64;100.00;99835.31;5045312;28;20049;-86
2022/06/04 01:31:48;;;;;;;14.40;13.02;;;;;;;20.69;100.00;99837.38;5045785;28;20143;-86
2022/06/04 01:34:16;;;;;;;14.30;12.73;;;;;;;20.72;100.00;99835.56;5047001;28;20413;-87
2022/06/04 01:36:47;;;;;;;14.43;12.88;;;;;;;20.79;100.00;99835.06;5029460;28;20033;-87
2022/06/04 01:39:16;;;;;;;14.00;12.60;;;;;;;20.78;100.00;99831.50;5031361;28;20414;-87
2022/06/04 01:41:56;;;;;;;13.68;12.38;;;;;;;20.85;100.00;99821.75;5045479;28;20627;-83
2022/06/04 01:44:31;;;;;;;13.30;12.10;;;;;;;20.86;100.00;99834.56;5048008;28;20067;-83
2022/06/04 01:47:01;;;;;;;13.32;12.10;;;;;;;20.85;100.00;99822.50;5045945;28;20060;-83
2022/06/04 01:49:33;;;;;;;13.30;12.00;;;;;;;20.88;100.00;99837.63;5029344;28;20037;-83
2022/06/04 01:52:02;;;;;;;14.63;12.73;;;;;;;20.91;100.00;99830.94;5048769;28;20047;-83
2022/06/04 01:54:34;;;;;;;13.23;11.93;;;;;;;20.91;100.00;99834.53;5050728;28;20295;-83
2022/06/04 01:57:13;;;;;;;14.48;12.93;;;;;;;20.87;100.00;99831.22;5033745;28;20041;-82
2022/06/04 01:59:48;;;;;;;15.15;13.75;;;;;;;20.84;100.00;99831.47;5027272;28;20088;-83
2022/06/04 02:02:18;;;;;;;14.57;13.27;;;;;;;20.77;100.00;99835.59;5049632;28;20654;-87
2022/06/04 02:04:47;;;;;;;14.10;12.60;;;;;;;20.67;100.00;99833.50;5024766;28;20087;-83
2022/06/04 02:07:32;;;;;;;16.65;12.35;;;;;;;20.72;100.00;99841.22;5047628;28;20067;-82
2022/06/04 02:10:10;;;;;;;13.20;11.98;;;;;;;20.74;100.00;99847.13;5030529;28;20044;-82
2022/06/04 02:12:38;;;;;;;14.25;12.27;;;;;;;20.73;100.00;99843.53;5046577;28;20041;-83
2022/06/04 02:15:06;;;;;;;14.95;12.43;;;;;;;20.75;100.00;99837.34;5030074;28;20504;-83
2022/06/04 02:17:33;;;;;;;14.27;12.98;;;;;;;20.76;100.00;99836.09;5024038;28;20049;-83
2022/06/04 02:19:59;;;;;;;13.65;12.07;;;;;;;20.80;100.00;99839.41;5030475;28;20040;-83
2022/06/04 02:22:25;;;;;;;15.13;13.60;;;;;;;20.70;100.00;99818.41;5039599;28;20045;-87
2022/06/04 02:24:50;;;;;;;14.93;13.13;;;;;;;20.76;100.00;99822.00;5030642;28;20030;-86
2022/06/04 02:27:16;;;;;;;14.98;13.35;;;;;;;20.70;100.00;99822.00;5044710;28;20055;-86
2022/06/04 02:29:42;;;;;;;15.40;13.90;;;;;;;20.67;100.00;99823.00;5031208;28;20033;-86
2022/06/04 02:32:22;;;;;;;14.95;13.40;;;;;;;20.62;100.00;99814.56;5030853;28;20104;-87
2022/06/04 02:35:12;;;;;;;15.80;13.95;;;;;;;20.54;100.00;99817.13;5032373;28;20421;-87
2022/06/04 02:37:47;;;;;;;15.15;13.75;;;;;;;20.44;100.00;99805.31;5031525;28;20638;-86
2022/06/04 02:40:24;;;;;;;16.67;14.98;;;;;;;20.41;100.00;99814.03;5027894;28;20041;-87
2022/06/04 02:43:02;;;;;;;15.20;13.80;;;;;;;20.36;100.00;99812.75;5029720;28;20421;-87
2022/06/04 02:45:31;;;;;;;16.38;14.75;;;;;;;20.32;100.00;99817.84;5030911;28;20073;-87
2022/06/04 02:48:12;;;;;;;15.57;14.02;;;;;;;20.33;100.00;99824.25;5031470;28;20071;-87
2022/06/04 02:50:43;;;;;;;15.65;14.15;;;;;;;20.24;100.00;99825.25;5029141;28;20120;-87
2022/06/04 02:53:09;;;;;;;16.25;14.65;;;;;;;20.26;100.00;99839.56;5044311;28;20045;-87
2022/06/04 02:55:39;;;;;;;14.80;13.40;;;;;;;20.29;100.00;99832.97;5041780;28;20087;-86
2022/06/04 02:58:14;;;;;;;14.93;13.48;;;;;;;20.36;100.00;99837.31;5032328;28;20041;-83
2022/06/04 03:00:40;;;;;;;16.40;14.68;;;;;;;20.36;100.00;99824.00;5024613;28;20072;-83
2022/06/04 03:03:10;;;;;;;16.83;15.32;;;;;;;20.37;100.00;99836.81;5029753;28;21565;-83
2022/06/04 03:05:38;;;;;;;16.15;14.55;;;;;;;20.35;100.00;99835.78;5041677;28;20038;-83
2022/06/04 03:08:05;;;;;;;15.48;13.85;;;;;;;20.35;100.00;99841.41;5023408;28;20045;-83
2022/06/04 03:10:35;;;;;;;16.40;14.88;;;;;;;20.36;100.00;99840.91;5037567;28;20421;-83
2022/06/04 03:13:01;;;;;;;16.95;15.25;;;;;;;20.30;100.00;99856.28;5020995;28;20565;-83
2022/06/04 03:15:27;;;;;;;14.38;12.88;;;;;;;20.27;100.00;99838.28;5043717;28;20125;-83
2022/06/04 03:17:53;;;;;;;14.88;13.38;;;;;;;20.20;100.00;99852.88;5047622;28;20054;-83
2022/06/04 03:20:22;;;;;;;16.42;14.93;;;;;;;20.28;100.00;99853.94;5030580;28;20038;-83
2022/06/04 03:22:48;;;;;;;17.40;13.65;;;;;;;20.27;100.00;99860.84;5042369;28;20028;-83
2022/06/04 03:25:13;;;;;;;15.75;14.35;;;;;;;20.29;100.00;99861.13;5048727;28;20087;-83
2022/06/04 03:27:39;;;;;;;14.45;13.15;;;;;;;20.25;100.00;99865.44;5040223;28;20474;-83
2022/06/04 03:30:05;;;;;;;14.15;12.85;;;;;;;20.21;100.00;99862.88;5046393;28;20056;-83
2022/06/04 03:32:31;;;;;;;15.65;13.85;;;;;;;20.22;100.00;99872.09;5028649;28;20045;-83
2022/06/04 03:34:56;;;;;;;16.50;14.93;;;;;;;20.18;100.00;99871.56;5047270;28;20609;-83
2022/06/04 03:37:22;;;;;;;16.73;15.02;;;;;;;20.08;100.00;99873.06;5047628;28;20128;-83
2022/06/04 03:39:47;;;;;;;17.23;15.50;;;;;;;20.05;100.00;99872.03;5043065;28;20078;-86
2022/06/04 03:42:13;;;;;;;16.27;14.60;;;;;;;20.09;100.00;99875.38;5045846;28;20413;-87
2022/06/04 03:44:40;;;;;;;16.92;15.32;;;;;;;20.14;100.00;99874.59;5040083;28;20040;-87
2022/06/04 03:47:06;;;;;;;18.30;16.50;;;;;;;20.17;100.00;99875.66;5047263;28;20509;-86
2022/06/04 03:49:32;;;;;;;14.98;13.68;;;;;;;20.20;100.00;99872.59;5040501;28;20053;-85
2022/06/04 03:51:58;;;;;;;16.80;13.98;;;;;;;20.25;100.00;99876.72;5049119;28;20048;-85
2022/06/04 03:54:52;;;;;;;15.70;14.30;;;;;;;20.30;100.00;99873.91;5044748;28;20041;-85
2022/06/04 03:59:56;;;;;;;18.17;16.05;;;;;;;20.40;100.00;99882.91;5042832;28;20044;-85
2022/06/04 04:02:21;;;;;;;17.10;15.48;;;;;;;20.36;100.00;99883.16;5045658;28;20509;-85
2022/06/04 04:04:47;;;;;;;15.80;14.27;;;;;;;20.34;100.00;99879.34;5029465;28;20037;-85
2022/06/04 04:07:14;;;;;;;16.45;14.80;;;;;;;20.38;100.00;99877.78;5042728;28;20049;-86
2022/06/04 04:09:40;;;;;;;16.33;14.73;;;;;;;20.40;100.00;99880.09;5044465;28;20127;-86
2022/06/04 04:12:06;;;;;;;18.10;16.17;;;;;;;20.39;100.00;99882.16;5036961;28;20045;-86
2022/06/04 04:14:32;;;;;;;17.13;15.35;;;;;;;20.35;100.00;99880.84;5042636;28;20033;-85
2022/06/04 04:16:57;;;;;;;17.23;15.68;;;;;;;20.32;100.00;99888.28;5038986;28;20502;-82
2022/06/04 04:19:26;;;;;;;17.00;15.30;;;;;;;20.33;100.00;99892.66;5027265;28;20044;-82
2022/06/04 04:21:51;;;;;;;17.40;15.80;;;;;;;20.39;100.00;99887.00;5039425;28;20099;-82
2022/06/04 04:24:17;;;;;;;18.20;16.60;;;;;;;20.45;100.00;99885.75;5038267;28;20037;-82
2022/06/04 04:26:43;;;;;;;17.75;15.93;;;;;;;20.49;100.00;99885.50;5039293;28;20041;-82
2022/06/04 04:29:09;;;;;;;17.30;15.77;;;;;;;20.54;100.00;99886.81;5037362;28;20498;-82
2022/06/04 04:31:36;;;;;;;18.13;16.42;;;;;;;20.58;100.00;99884.50;5043374;28;20044;-82
2022/06/04 04:34:02;;;;;;;17.80;16.20;;;;;;;20.61;100.00;99881.44;5022894;28;20029;-83
2022/06/04 04:36:30;;;;;;;17.80;15.75;;;;;;;20.66;100.00;99877.09;5042967;28;20509;-82
2022/06/04 04:38:58;;;;;;;18.48;16.77;;;;;;;20.73;100.00;99883.00;5038066;28;20049;-82
2022/06/04 04:41:24;;;;;;;18.95;17.20;;;;;;;20.71;100.00;99885.53;5042292;28;20037;-82
2022/06/04 04:43:50;;;;;;;18.70;16.85;;;;;;;20.65;100.00;99892.44;5041196;28;20098;-82
2022/06/04 04:46:16;;;;;;;19.08;17.20;;;;;;;20.75;100.00;99914.22;5047857;28;20048;-80
2022/06/04 04:48:44;;;;;;;18.38;16.48;;;;;;;20.83;100.00;99911.69;5026382;28;20524;-80
2022/06/04 04:51:15;;;;;;;17.83;15.98;;;;;;;20.91;100.00;99904.25;5030263;28;20039;-82
2022/06/04 04:53:41;;;;;;;17.75;15.50;;;;;;;20.95;100.00;99919.63;5046320;28;20048;-82
2022/06/04 04:56:07;;;;;;;16.50;14.90;;;;;;;20.97;100.00;99919.16;5038526;28;20038;-86
2022/06/04 04:58:32;;;;;;;17.27;15.50;;;;;;;21.01;100.00;99922.47;5042261;28;20041;-86
2022/06/04 05:00:58;;;;;;;17.25;15.50;;;;;;;21.06;100.00;99926.59;5042047;28;20402;-86
2022/06/04 05:03:23;;;;;;;17.42;15.52;;;;;;;21.04;100.00;99918.63;5037989;28;20100;-86
2022/06/04 05:06:03;;;;;;;17.30;15.63;;;;;;;21.09;100.00;99925.56;5021370;28;20481;-86
2022/06/04 05:08:30;;;;;;;17.55;15.75;;;;;;;21.13;100.00;99915.59;5043952;28;20048;-86
2022/06/04 05:10:56;;;;;;;16.65;15.15;;;;;;;21.20;100.00;99925.56;5042587;28;20045;-86
2022/06/04 05:13:22;;;;;;;17.42;15.77;;;;;;;21.22;100.00;99918.16;5026053;28;20120;-86
2022/06/04 05:15:50;;;;;;;17.17;15.43;;;;;;;21.26;100.00;99929.97;5043418;28;20029;-86
2022/06/04 05:18:15;;;;;;;17.80;15.45;;;;;;;21.30;100.00;99924.06;5040867;28;20478;-85
2022/06/04 05:20:41;;;;;;;18.25;15.85;;;;;;;21.32;100.00;99927.13;5039001;28;20128;-86
2022/06/04 05:23:07;;;;;;;16.77;15.10;;;;;;;21.32;100.00;99927.13;5042228;28;20103;-85
2022/06/04 05:25:32;;;;;;;16.63;14.95;;;;;;;21.31;100.00;99919.97;5007310;28;20548;-87
2022/06/04 05:27:58;;;;;;;16.63;14.98;;;;;;;21.36;100.00;99928.41;5042594;28;20045;-87
2022/06/04 05:30:24;;;;;;;16.52;14.65;;;;;;;21.45;100.00;99924.53;5046093;28;20048;-86
2022/06/04 05:32:49;;;;;;;17.17;13.93;;;;;;;21.56;100.00;99930.16;5027075;28;20535;-87
2022/06/04 05:35:15;;;;;;;16.63;14.77;;;;;;;21.62;100.00;99930.16;5025040;28;20486;-85
2022/06/04 05:37:41;;;;;;;15.32;13.98;;;;;;;21.67;100.00;99940.69;5042140;28;20026;-86
2022/06/04 05:40:07;;;;;;;16.65;15.05;;;;;;;21.65;100.00;99938.38;5046000;28;20513;-86
2022/06/04 05:42:34;;;;;;;16.85;14.77;;;;;;;21.68;100.00;99936.56;5043707;28;20087;-87
2022/06/04 05:45:00;;;;;;;15.57;14.15;;;;;;;21.74;100.00;99923.22;5042255;28;20049;-87
2022/06/04 05:47:26;;;;;;;16.38;14.77;;;;;;;21.86;100.00;99930.38;5040140;28;20049;-87
2022/06/04 05:49:51;;;;;;;15.98;14.63;;;;;;;21.99;100.00;99932.69;5039464;28;20078;-83
2022/06/04 05:52:17;;;;;;;15.60;14.05;;;;;;;22.09;100.00;99937.50;5037560;28;20033;-87
2022/06/04 05:54:42;;;;;;;15.52;13.93;;;;;;;22.24;100.00;99940.78;5043104;28;20461;-87
2022/06/04 05:57:08;;;;;;;15.18;13.68;;;;;;;22.45;100.00;99932.72;5047458;28;20187;-88
2022/06/04 05:59:34;;;;;;;14.88;13.30;;;;;;;22.59;100.00;99945.00;5045090;28;20506;-87
2022/06/04 06:01:59;;;;;;;15.95;12.73;;;;;;;22.69;100.00;99961.16;5033698;28;20041;-87
2022/06/04 06:04:28;;;;;;;13.05;11.85;;;;;;;22.90;100.00;99955.13;5038080;28;20045;-87
2022/06/04 06:06:54;;;;;;;14.73;11.90;;;;;;;23.14;100.00;99947.47;5041795;28;20128;-87
2022/06/04 06:09:23;;;;;;;13.05;11.57;;;;;;;23.41;100.00;99957.06;5028005;28;20183;-87
2022/06/04 06:11:49;;;;;;;11.55;10.15;;;;;;;23.61;100.00;99941.72;5023497;28;20621;-83
2022/06/04 06:14:16;;;;;;;13.27;10.20;;;;;;;23.76;100.00;99944.13;5044825;28;20036;-83
2022/06/04 06:16:44;;;;;;;9.85;8.88;;;;;;;23.93;100.00;99956.84;5030672;28;20479;-82
2022/06/04 06:19:11;;;;;;;10.27;8.43;;;;;;;24.13;100.00;99953.50;5045977;28;20052;-83
2022/06/04 06:25:19;;;;;;;9.70;8.70;;;;;;;24.48;100.00;99963.16;5044144;28;20055;-83
2022/06/04 06:27:44;;;;;;;10.65;8.38;;;;;;;24.59;98.92;99960.16;5045126;28;20037;-89
2022/06/04 06:30:11;;;;;;;9.70;8.70;;;;;;;24.79;98.27;99961.72;5027446;28;20394;-88
2022/06/04 06:32:36;;;;;;;9.88;8.00;;;;;;;25.14;97.52;99957.88;5048535;28;20038;-86
2022/06/04 06:35:03;;;;;;;9.80;8.80;;;;;;;25.42;95.21;99956.09;5025502;28;20051;-88
2022/06/04 06:37:29;;;;;;;11.82;8.65;;;;;;;25.50;93.38;99957.00;5023185;28;20042;-87
2022/06/04 06:39:55;;;;;;;10.95;8.32;;;;;;;25.72;93.04;99943.75;5049256;28;20055;-87
2022/06/04 06:42:22;;;;;;;10.75;8.35;;;;;;;25.81;92.23;99944.06;5038992;28;20076;-87
2022/06/04 06:44:55;;;;;;;10.65;8.32;;;;;;;25.94;90.25;99938.41;5020799;28;20065;-88
2022/06/04 06:47:21;;;;;;;9.52;8.07;;;;;;;26.16;88.04;99950.66;5042553;28;20138;-82
2022/06/04 06:49:46;;;;;;;13.07;8.45;;;;;;;26.17;87.77;99932.25;5037762;28;20033;-82
2022/06/04 06:52:13;;;;;;;9.38;8.40;;;;;;;26.28;87.83;99934.91;5032673;28;20564;-82
2022/06/04 06:54:39;;;;;;;10.55;8.48;;;;;;;26.52;87.08;99936.72;5044444;28;20051;-82
2022/06/04 06:57:08;;;;;;;10.25;8.02;;;;;;;26.73;86.15;99938.28;5018311;28;20042;-82
2022/06/04 06:59:34;;;;;;;8.10;7.03;;;;;;;26.92;84.95;99931.72;5020282;28;20041;-82
2022/06/04 07:02:00;;;;;;;9.45;7.80;;;;;;;26.93;83.92;99933.25;5027768;28;20501;-82
2022/06/04 07:04:26;;;;;;;8.18;7.38;;;;;;;27.09;83.01;99929.22;5031231;28;20040;-82
2022/06/04 07:06:55;;;;;;;11.02;7.05;;;;;;;27.16;81.82;99914.31;5048421;28;20572;-82
2022/06/04 07:09:27;;;;;;;8.90;7.03;;;;;;;27.33;81.44;99918.28;5032549;28;20055;-82
2022/06/04 07:11:53;;;;;;;8.38;7.07;;;;;;;27.32;81.64;99930.22;5049121;28;20218;-82
2022/06/04 07:14:20;;;;;;;7.32;6.32;;;;;;;27.54;79.55;99923.22;5044065;28;20033;-82
2022/06/04 07:16:46;;;;;;;6.90;6.20;;;;;;;27.64;76.86;99927.06;5040978;28;20104;-82
2022/06/04 07:19:13;;;;;;;6.53;5.28;;;;;;;27.83;75.79;99921.88;5039335;28;20044;-82
2022/06/04 07:21:39;;;;;;;6.10;4.78;;;;;;;27.77;69.67;99930.59;5021278;28;20045;-83
2022/06/04 07:24:05;;;;;;;6.28;5.03;;;;;;;27.96;69.09;99935.25;5025436;28;20407;-82
2022/06/04 07:26:31;;;;;;;5.70;4.60;;;;;;;28.16;67.51;99931.63;5004833;28;20046;-89
2022/06/04 07:28:57;;;;;;;6.25;4.70;;;;;;;28.34;66.18;99930.56;5047432;28;20135;-82
2022/06/04 07:31:23;;;;;;;6.32;5.00;;;;;;;28.18;65.79;99946.09;5040147;28;20096;-82
2022/06/04 07:33:50;;;;;;;6.57;4.82;;;;;;;28.01;66.94;99942.91;5011000;28;20639;-82
2022/06/04 07:36:22;;;;;;;8.85;4.93;;;;;;;28.11;66.37;99952.50;5043580;28;20407;-82
2022/06/04 07:38:47;;;;;;;6.63;5.00;;;;;;;28.05;66.54;99955.47;5039950;28;20052;-83
2022/06/04 07:41:22;;;;;;;5.28;4.65;;;;;;;28.13;67.00;99941.31;5040164;28;20025;-83
2022/06/04 07:43:48;;;;;;;5.65;4.53;;;;;;;28.15;66.00;99935.78;5021218;28;20502;-83
2022/06/04 07:46:14;;;;;;;5.90;4.53;;;;;;;28.19;65.16;99941.88;5037653;28;20091;-84
2022/06/04 07:48:40;;;;;;;6.22;4.72;;;;;;;28.35;65.26;99940.63;5041452;28;20401;-89
2022/06/04 07:51:06;;;;;;;5.95;4.40;;;;;;;28.42;65.23;99950.56;5037053;28;20037;-90
2022/06/04 07:53:32;;;;;;;5.05;4.40;;;;;;;28.61;63.76;99933.91;5037039;28;20096;-89
2022/06/04 07:55:57;;;;;;;6.55;4.45;;;;;;;28.75;63.50;99935.34;5040767;28;20041;-91
2022/06/04 07:58:23;;;;;;;7.95;4.63;;;;;;;28.81;61.23;99944.47;5040864;28;20050;-88
2022/06/04 08:00:56;;;;;;;6.90;4.28;;;;;;;28.70;60.13;99945.59;5040506;28;20041;-90
2022/06/04 08:03:21;;;;;;;5.45;3.97;;;;;;;28.83;59.92;99935.34;5043784;28;20042;-90
2022/06/04 08:05:47;;;;;;;5.72;4.40;;;;;;;28.86;59.56;99934.97;5038601;28;20045;-82
2022/06/04 08:08:12;;;;;;;6.35;4.13;;;;;;;28.75;58.91;99929.63;5021454;28;20057;-82
2022/06/04 08:10:38;;;;;;;4.78;4.15;;;;;;;28.68;58.78;99942.50;5044875;28;20057;-82
2022/06/04 08:13:09;;;;;;;5.60;5.10;;;;;;;28.66;58.36;99952.97;5039560;28;20044;-82
2022/06/04 08:15:34;;;;;;;4.82;4.20;;;;;;;28.59;57.50;99945.88;5037658;28;20037;-82
2022/06/04 08:18:00;;;;;;;5.85;4.15;;;;;;;28.64;58.62;99947.03;5038375;28;20478;-81
2022/06/04 08:20:27;;;;;;;6.25;3.90;;;;;;;28.81;59.99;99946.56;5024933;28;20045;-82
2022/06/04 08:22:52;;;;;;;5.68;4.32;;;;;;;29.11;60.78;99946.63;5038232;28;20049;-82
2022/06/04 08:25:18;;;;;;;7.05;4.40;;;;;;;29.21;58.20;99930.47;5023123;28;20053;-91
2022/06/04 08:27:44;;;;;;;5.97;4.45;;;;;;;29.12;58.64;99939.56;5018167;28;20029;-90
2022/06/04 08:30:10;;;;;;;4.93;4.30;;;;;;;29.40;58.36;99953.72;5024937;28;20076;-92
2022/06/04 08:32:36;;;;;;;6.10;4.32;;;;;;;29.50;57.50;99945.34;5042541;28;20055;-91
2022/06/04 08:35:02;;;;;;;6.93;4.50;;;;;;;29.56;57.64;99960.22;5021849;28;20494;-91
2022/06/04 08:37:28;;;;;;;5.43;4.38;;;;;;;29.61;56.91;99959.25;5023537;28;20069;-91
2022/06/04 08:39:54;;;;;;;5.10;4.15;;;;;;;29.65;57.23;99966.13;5042679;28;20502;-92
2022/06/04 08:42:44;;;;;;;6.28;4.60;;;;;;;29.78;57.48;99970.13;5040102;28;20120;-82
2022/06/04 08:45:11;;;;;;;6.32;4.80;;;;;;;29.51;57.42;99969.75;5039838;28;20046;-91
2022/06/04 08:47:43;;;;;;;7.22;4.22;;;;;;;29.73;57.03;99962.50;5022143;28;20136;-92
2022/06/04 08:50:20;;;;;;;5.00;4.50;;;;;;;29.84;55.64;99964.97;5026300;28;20048;-91
2022/06/04 08:52:47;;;;;;;6.82;5.28;;;;;;;29.81;55.73;99974.69;5038303;28;20525;-90
2022/06/04 08:58:12;;;;;;;6.80;4.85;;;;;;;30.14;55.92;99973.53;5026532;28;20501;-91
2022/06/04 09:00:56;;;;;;;5.15;4.65;;;;;;;30.39;55.76;99980.16;5023839;28;20074;-86
2022/06/04 09:03:42;;;;;;;5.57;4.35;;;;;;;30.66;53.67;99980.44;5034904;28;20040;-94
2022/06/04 09:06:11;;;;;;;4.97;4.43;;;;;;;30.55;51.13;99973.06;5033754;28;20391;-92
2022/06/04 09:09:00;;;;;;;5.18;4.25;;;;;;;30.46;50.55;99982.25;5041721;28;20044;-91
2022/06/04 09:11:42;;;;;;;4.60;4.07;;;;;;;30.64;49.15;99982.38;5036217;28;20110;-91
2022/06/04 09:14:14;;;;;;;5.28;4.75;;;;;;;30.95;49.06;99989.47;5040163;28;20055;-92
2022/06/04 09:16:41;;;;;;;5.97;4.00;;;;;;;31.07;49.03;99982.00;5035972;28;20030;-91
2022/06/04 09:19:14;;;;;;;5.00;3.83;;;;;;;31.30;46.50;99981.88;5039537;28;20312;-91
2022/06/04 09:21:39;;;;;;;5.35;3.80;;;;;;;31.43;46.31;99978.69;5035816;28;20392;-83
2022/06/04 09:24:06;;;;;;;5.47;3.60;;;;;;;31.34;44.74;99985.81;5043450;28;20063;-82
2022/06/04 09:26:53;;;;;;;4.22;3.53;;;;;;;31.08;45.34;99977.78;5038220;28;20068;-83
2022/06/04 09:29:24;;;;;;;4.43;3.55;;;;;;;31.07;44.84;99987.72;5043789;28;20092;-83
2022/06/04 09:31:58;;;;;;;6.13;3.58;;;;;;;31.00;45.03;99969.25;5019192;28;20542;-83
2022/06/04 09:34:29;;;;;;;5.53;3.80;;;;;;;30.92;45.13;99976.31;5040925;28;20044;-83
2022/06/04 09:36:55;;;;;;;4.10;3.70;;;;;;;30.85;44.90;99977.13;5023113;28;20053;-82
2022/06/04 09:39:28;;;;;;;4.80;3.70;;;;;;;30.94;44.77;99973.63;5021334;28;20087;-92
2022/06/04 09:42:02;;;;;;;3.95;3.47;;;;;;;31.09;44.33;99973.59;5023427;28;20061;-91
2022/06/04 09:44:29;;;;;;;4.15;3.47;;;;;;;31.20;44.72;99967.41;5041764;28;20036;-91
2022/06/04 09:47:22;;;;;;;6.10;4.03;;;;;;;31.15;43.96;99976.97;5038003;28;20049;-92
2022/06/04 09:49:57;;;;;;;4.10;3.65;;;;;;;31.02;45.44;99975.13;5038197;28;20418;-91
2022/06/04 09:52:27;;;;;;;4.97;3.72;;;;;;;31.18;44.54;99969.34;5046907;28;20045;-92
2022/06/04 09:54:55;;;;;;;4.07;3.47;;;;;;;31.23;43.73;99976.91;5018712;28;20037;-92
2022/06/04 09:57:31;;;;;;;5.13;3.92;;;;;;;31.46;43.79;99966.81;5038404;28;20451;-91
2022/06/04 09:59:58;;;;;;;4.00;3.45;;;;;;;31.33;43.22;99974.97;5019045;28;20045;-93
2022/06/04 10:02:24;;;;;;;4.70;3.47;;;;;;;31.46;43.60;99978.28;5047146;28;20494;-90
2022/06/04 10:04:59;;;;;;;4.88;3.38;;;;;;;31.52;43.09;99985.88;5040069;28;20033;-90
2022/06/04 10:07:43;;;;;;;3.75;3.38;;;;;;;31.73;42.43;99972.00;5037502;28;20144;-91
2022/06/04 10:10:31;;;;;;;6.30;3.58;;;;;;;31.42;42.73;99957.88;5022022;28;20080;-92
2022/06/04 10:15:47;;;;;;;3.97;3.53;;;;;;;31.38;42.61;99968.97;5044465;28;20045;-92
2022/06/04 10:18:16;;;;;;;4.50;3.53;;;;;;;31.35;43.71;99975.88;5044467;28;20036;-82
2022/06/04 10:20:55;;;;;;;5.88;3.65;;;;;;;31.57;44.05;99965.63;5041742;28;20296;-82
2022/06/04 10:23:21;;;;;;;3.85;3.20;;;;;;;31.85;42.24;99978.75;5025103;28;20486;-82
2022/06/04 10:26:24;;;;;;;4.07;3.30;;;;;;;31.85;41.57;99990.22;5042458;28;20083;-82
2022/06/04 10:28:55;;;;;;;4.22;3.50;;;;;;;31.57;41.27;99987.81;5041733;28;20038;-82
2022/06/04 10:31:31;;;;;;;5.05;3.65;;;;;;;31.44;41.71;99963.78;5043407;28;20067;-83
2022/06/04 10:34:20;;;;;;;5.00;3.38;;;;;;;31.37;43.75;99972.44;5027288;28;20099;-83
2022/06/04 10:36:54;;;;;;;5.43;3.63;;;;;;;31.76;42.56;99970.81;5044775;28;20119;-91
2022/06/04 10:39:44;;;;;;;4.25;3.28;;;;;;;32.24;42.64;99965.56;5039535;28;20525;-83
2022/06/04 10:42:28;;;;;;;7.55;3.60;;;;;;;32.26;40.45;99972.25;5038875;28;20514;-84
2022/06/04 10:45:26;;;;;;;5.43;3.90;;;;;;;32.29;42.29;99971.06;5040607;28;20045;-82
2022/06/04 10:48:00;;;;;;;6.47;4.10;;;;;;;32.00;43.03;99970.00;4979764;28;20082;-83
2022/06/04 10:51:25;;;;;;;4.85;3.45;;;;;;;32.02;40.89;99964.44;5043263;28;20045;-83
2022/06/04 10:53:59;;;;;;;5.00;3.30;;;;;;;32.34;41.23;99972.16;5024464;28;20126;-83
2022/06/04 10:56:33;;;;;;;5.47;4.43;;;;;;;32.79;40.66;99959.41;5019264;28;20499;-92
2022/06/04 10:59:04;;;;;;;5.43;3.13;;;;;;;32.99;38.94;99966.78;5008452;28;20052;-84
2022/06/04 11:01:36;;;;;;;4.05;3.13;;;;;;;32.82;39.97;99976.19;5043136;28;20564;-83
2022/06/04 11:04:19;;;;;;;3.45;3.10;;;;;;;32.59;38.61;99969.19;5031221;28;20077;-83
2022/06/04 11:06:53;;;;;;;5.25;3.50;;;;;;;32.14;39.38;99971.25;5042864;28;20025;-84
2022/06/04 11:09:23;;;;;;;6.65;3.28;;;;;;;31.98;40.69;99972.72;5042370;28;20052;-83
2022/06/04 11:11:59;;;;;;;7.22;3.15;;;;;;;32.28;40.24;99966.66;5037113;28;20152;-83
2022/06/04 11:14:36;;;;;;;6.20;2.92;;;;;;;32.55;38.59;99957.38;5027502;28;20155;-83
2022/06/04 11:17:12;;;;;;;3.75;2.80;;;;;;;32.50;36.66;99961.25;5040328;28;20099;-92
2022/06/04 11:20:05;;;;;;;4.93;2.75;;;;;;;32.48;38.66;99958.22;5039224;28;20062;-91
2022/06/04 11:23:07;;;;;;;3.78;2.90;;;;;;;32.49;38.12;99954.00;5040290;28;20100;-93
2022/06/04 11:25:37;;;;;;;5.05;2.80;;;;;;;32.17;39.24;99947.09;5011343;28;20059;-93
2022/06/04 11:28:07;;;;;;;4.68;3.00;;;;;;;32.28;39.83;99946.59;5026409;28;20053;-94
2022/06/04 11:31:07;;;;;;;3.40;2.80;;;;;;;32.55;38.07;99945.91;5025059;28;20038;-95
2022/06/04 11:34:05;;;;;;;5.80;2.90;;;;;;;32.73;37.95;99938.78;5051943;28;20531;-94
2022/06/04 11:36:40;;;;;;;4.25;2.58;;;;;;;32.76;36.71;99954.81;5013366;28;20067;-94
2022/06/04 11:39:27;;;;;;;5.32;2.78;;;;;;;32.98;36.99;99959.50;5027292;28;20128;-95
2022/06/04 11:42:11;;;;;;;3.88;2.95;;;;;;;33.02;35.99;99954.09;5037625;28;20533;-91
2022/06/04 11:44:43;;;;;;;3.92;2.80;;;;;;;32.89;37.08;99959.44;5044752;28;20052;-92
2022/06/04 11:47:20;;;;;;;3.53;2.63;;;;;;;33.01;36.79;99951.78;5038410;28;20056;-94
2022/06/04 11:49:51;;;;;;;3.65;2.60;;;;;;;33.28;36.28;99959.06;5036300;28;20113;-95
2022/06/04 11:52:27;;;;;;;4.95;2.60;;;;;;;33.50;36.74;99956.44;5045861;28;20049;-84
2022/06/04 11:55:14;;;;;;;4.53;2.80;;;;;;;33.42;35.51;99950.81;5024368;28;20041;-83
2022/06/04 11:57:43;;;;;;;5.18;3.13;;;;;;;33.46;37.78;99956.88;5040567;28;20528;-83